createdAt,value
2016-06-06T08:40:05.605Z,281.3
2016-06-06T08:40:15.558Z,286.9
2016-06-06T08:40:25.542Z,286.9
2016-06-06T08:40:35.542Z,286.9
2016-06-06T08:40:45.527Z,286.9
2016-06-06T08:40:55.542Z,286.9
2016-06-06T08:41:05.545Z,286.9
2016-06-06T08:41:15.545Z,286.9
2016-06-06T08:41:25.545Z,286.9
2016-06-06T08:41:35.530Z,286.9
2016-06-06T08:41:45.545Z,286.9
2016-06-06T08:41:55.530Z,286.9
2016-06-06T08:42:05.533Z,286.9
2016-06-06T08:42:15.533Z,286.9
2016-06-06T08:42:25.517Z,286.9
2016-06-06T08:42:35.517Z,286.9
2016-06-06T08:42:45.533Z,286.9
2016-06-06T08:42:55.533Z,286.9
2016-06-06T08:43:05.536Z,286.9
2016-06-06T08:43:15.536Z,286.9
2016-06-06T08:43:27.176Z,286.9
2016-06-06T08:43:35.380Z,286.9
2016-06-06T08:43:45.520Z,292.5
2016-06-06T08:43:55.520Z,292.5
2016-06-06T08:44:05.538Z,292.5
2016-06-06T08:44:15.507Z,292.5
2016-06-06T08:44:25.522Z,292.5
2016-06-06T08:44:35.522Z,286.9
2016-06-06T08:44:45.366Z,286.9
2016-06-06T08:44:55.507Z,286.9
2016-06-06T08:45:05.541Z,286.9
2016-06-06T08:45:15.510Z,286.9
2016-06-06T08:45:25.525Z,286.9
2016-06-06T08:45:35.494Z,286.9
2016-06-06T08:45:45.494Z,292.5
2016-06-06T08:45:55.510Z,292.5
2016-06-06T08:46:05.543Z,292.5
2016-06-06T08:46:15.496Z,292.5
2016-06-06T08:46:25.496Z,292.5
2016-06-06T08:46:35.340Z,292.5
2016-06-06T08:46:45.480Z,292.5
2016-06-06T08:46:55.496Z,292.5
2016-06-06T08:47:05.483Z,292.5
2016-06-06T08:47:15.327Z,292.5
2016-06-06T08:47:25.483Z,298.1
2016-06-06T08:47:35.483Z,303.8
2016-06-06T08:47:45.483Z,298.1
2016-06-06T08:47:55.499Z,303.8
2016-06-06T08:48:05.486Z,303.8
2016-06-06T08:48:15.486Z,303.8
2016-06-06T08:48:25.486Z,315
2016-06-06T08:48:35.486Z,309.4
2016-06-06T08:48:45.486Z,309.4
2016-06-06T08:48:55.471Z,309.4
2016-06-06T08:49:05.474Z,315
2016-06-06T08:49:15.474Z,315
2016-06-06T08:49:25.474Z,320.6
2016-06-06T08:49:35.474Z,320.6
2016-06-06T08:49:45.474Z,320.6
2016-06-06T08:49:55.458Z,326.3
2016-06-06T08:50:05.523Z,326.3
2016-06-06T08:50:15.476Z,326.3
2016-06-06T08:50:25.460Z,331.9
2016-06-06T08:50:35.460Z,331.9
2016-06-06T08:50:45.460Z,331.9
2016-06-06T08:50:55.460Z,331.9
2016-06-06T08:51:05.463Z,331.9
2016-06-06T08:51:15.463Z,337.5
2016-06-06T08:51:25.463Z,337.5
2016-06-06T08:51:35.463Z,337.5
2016-06-06T08:51:45.447Z,343.1
2016-06-06T08:51:55.463Z,343.1
2016-06-06T08:52:05.435Z,343.1
2016-06-06T08:52:15.450Z,348.8
2016-06-06T08:52:25.450Z,348.8
2016-06-06T08:52:35.450Z,354.4
2016-06-06T08:52:45.450Z,354.4
2016-06-06T08:52:55.450Z,360
2016-06-06T08:53:05.452Z,360
2016-06-06T08:53:15.452Z,354.4
2016-06-06T08:53:25.437Z,360
2016-06-06T08:53:35.437Z,348.8
2016-06-06T08:53:45.437Z,348.8
2016-06-06T08:53:55.421Z,348.8
2016-06-06T08:54:05.440Z,343.1
2016-06-06T08:54:15.440Z,343.1
2016-06-06T08:54:25.455Z,343.1
2016-06-06T08:54:35.440Z,343.1
2016-06-06T08:54:47.565Z,337.5
2016-06-06T08:54:59.252Z,337.5
2016-06-06T08:55:10.849Z,337.5
2016-06-06T08:55:22.583Z,337.5
2016-06-06T08:55:34.349Z,343.1
2016-06-06T08:55:46.115Z,343.1
2016-06-06T08:55:57.974Z,343.1
2016-06-06T08:56:09.726Z,343.1
2016-06-06T08:56:21.429Z,343.1
2016-06-06T08:56:33.226Z,343.1
2016-06-06T08:56:41.007Z,343.1
2016-06-06T08:56:51.007Z,343.1
2016-06-06T08:57:01.007Z,343.1
2016-06-06T08:57:10.995Z,343.1
2016-06-06T08:57:20.995Z,343.1
2016-06-06T08:57:30.995Z,348.8
2016-06-06T08:57:40.995Z,343.1
2016-06-06T08:57:50.995Z,343.1
2016-06-06T08:58:00.995Z,348.8
2016-06-06T08:58:10.997Z,348.8
2016-06-06T08:58:20.997Z,348.8
2016-06-06T08:58:30.997Z,348.8
2016-06-06T08:58:40.997Z,348.8
2016-06-06T08:58:51.700Z,348.8
2016-06-06T08:59:00.981Z,348.8
2016-06-06T08:59:11.891Z,348.8
2016-06-06T08:59:21.438Z,348.8
2016-06-06T08:59:31.032Z,348.8
2016-06-06T08:59:40.985Z,348.8
2016-06-06T08:59:50.985Z,343.1
2016-06-06T09:00:00.985Z,343.1
2016-06-06T09:00:10.987Z,343.1
2016-06-06T09:00:20.987Z,343.1
2016-06-06T09:00:30.971Z,343.1
2016-06-06T09:00:40.971Z,343.1
2016-06-06T09:00:50.971Z,343.1
2016-06-06T09:01:00.971Z,348.8
2016-06-06T09:01:10.974Z,348.8
2016-06-06T09:01:20.974Z,354.4
2016-06-06T09:01:30.990Z,360
2016-06-06T09:01:40.974Z,360
2016-06-06T09:01:50.959Z,365.6
2016-06-06T09:02:00.959Z,371.3
2016-06-06T09:02:10.806Z,371.3
2016-06-06T09:02:20.962Z,376.9
2016-06-06T09:02:30.806Z,376.9
2016-06-06T09:02:40.665Z,371.3
2016-06-06T09:02:50.962Z,371.3
2016-06-06T09:03:00.962Z,371.3
2016-06-06T09:03:10.948Z,365.6
2016-06-06T09:03:20.948Z,365.6
2016-06-06T09:03:30.964Z,365.6
2016-06-06T09:03:40.792Z,371.3
2016-06-06T09:03:50.948Z,371.3
2016-06-06T09:04:00.948Z,376.9
2016-06-06T09:04:10.951Z,376.9
2016-06-06T09:04:20.936Z,376.9
2016-06-06T09:04:30.936Z,376.9
2016-06-06T09:04:40.936Z,382.5
2016-06-06T09:04:50.951Z,382.5
2016-06-06T09:05:00.936Z,382.5
2016-06-06T09:05:10.939Z,388.1
2016-06-06T09:05:20.939Z,388.1
2016-06-06T09:05:30.939Z,393.8
2016-06-06T09:05:40.939Z,393.8
2016-06-06T09:05:50.939Z,393.8
2016-06-06T09:06:00.923Z,399.4
2016-06-06T09:06:10.941Z,399.4
2016-06-06T09:06:20.925Z,405
2016-06-06T09:06:30.925Z,405
2016-06-06T09:06:40.800Z,405
2016-06-06T09:06:50.925Z,405
2016-06-06T09:07:00.925Z,405
2016-06-06T09:07:10.912Z,410.6
2016-06-06T09:07:20.928Z,410.6
2016-06-06T09:07:30.912Z,410.6
2016-06-06T09:07:40.928Z,416.3
2016-06-06T09:07:50.928Z,416.3
2016-06-06T09:08:00.912Z,427.5
2016-06-06T09:08:10.930Z,421.9
2016-06-06T09:08:20.914Z,421.9
2016-06-06T09:08:30.914Z,427.5
2016-06-06T09:08:40.914Z,433.1
2016-06-06T09:08:50.930Z,438.8
2016-06-06T09:09:00.914Z,444.4
2016-06-06T09:09:10.903Z,444.4
2016-06-06T09:09:20.918Z,444.4
2016-06-06T09:09:30.903Z,450
2016-06-06T09:09:40.918Z,444.4
2016-06-06T09:09:50.918Z,450
2016-06-06T09:10:00.996Z,444.4
2016-06-06T09:10:10.905Z,444.4
2016-06-06T09:10:20.905Z,444.4
2016-06-06T09:10:30.905Z,455.6
2016-06-06T09:10:40.905Z,455.6
2016-06-06T09:10:50.905Z,455.6
2016-06-06T09:11:00.889Z,455.6
2016-06-06T09:11:10.892Z,455.6
2016-06-06T09:11:20.892Z,461.3
2016-06-06T09:11:30.908Z,466.9
2016-06-06T09:11:40.892Z,472.5
2016-06-06T09:11:50.736Z,466.9
2016-06-06T09:12:00.892Z,466.9
2016-06-06T09:12:10.911Z,466.9
2016-06-06T09:12:20.911Z,461.3
2016-06-06T09:12:30.895Z,461.3
2016-06-06T09:12:40.879Z,461.3
2016-06-06T09:12:50.723Z,466.9
2016-06-06T09:13:00.879Z,466.9
2016-06-06T09:13:10.897Z,466.9
2016-06-06T09:13:21.194Z,466.9
2016-06-06T09:13:30.866Z,466.9
2016-06-06T09:13:40.881Z,472.5
2016-06-06T09:13:50.741Z,472.5
2016-06-06T09:14:01.897Z,466.9
2016-06-06T09:14:10.838Z,472.5
2016-06-06T09:14:21.150Z,483.8
2016-06-06T09:14:30.884Z,495
2016-06-06T09:14:40.963Z,500.6
2016-06-06T09:14:50.869Z,528.8
2016-06-06T09:15:00.916Z,534.4
2016-06-06T09:15:10.871Z,528.8
2016-06-06T09:15:20.886Z,523.1
2016-06-06T09:15:30.871Z,511.9
2016-06-06T09:15:40.855Z,506.3
2016-06-06T09:15:50.871Z,506.3
2016-06-06T09:16:00.855Z,500.6
2016-06-06T09:16:10.858Z,500.6
2016-06-06T09:16:20.858Z,495
2016-06-06T09:16:30.858Z,495
2016-06-06T09:16:40.874Z,495
2016-06-06T09:16:50.858Z,489.4
2016-06-06T09:17:00.858Z,495
2016-06-06T09:17:10.861Z,495
2016-06-06T09:17:20.861Z,500.6
2016-06-06T09:17:30.861Z,500.6
2016-06-06T09:17:40.861Z,500.6
2016-06-06T09:17:50.861Z,500.6
2016-06-06T09:18:00.846Z,500.6
2016-06-06T09:18:10.864Z,500.6
2016-06-06T09:18:20.692Z,506.3
2016-06-06T09:18:30.864Z,506.3
2016-06-06T09:18:40.849Z,506.3
2016-06-06T09:18:50.849Z,506.3
2016-06-06T09:19:00.849Z,511.9
2016-06-06T09:19:10.851Z,511.9
2016-06-06T09:19:20.851Z,506.3
2016-06-06T09:19:30.835Z,506.3
2016-06-06T09:19:40.851Z,506.3
2016-06-06T09:19:50.835Z,523.1
2016-06-06T09:20:00.851Z,534.4
2016-06-06T09:20:10.854Z,551.3
2016-06-06T09:20:20.838Z,568.1
2016-06-06T09:20:30.838Z,590.6
2016-06-06T09:20:40.838Z,691.9
2016-06-06T09:20:50.838Z,601.9
2016-06-06T09:21:00.838Z,590.6
2016-06-06T09:21:10.841Z,607.5
2016-06-06T09:21:20.841Z,613.1
2016-06-06T09:21:30.841Z,596.3
2016-06-06T09:21:40.825Z,568.1
2016-06-06T09:21:50.841Z,528.8
2016-06-06T09:22:00.841Z,517.5
2016-06-06T09:22:10.827Z,517.5
2016-06-06T09:22:20.827Z,511.9
2016-06-06T09:22:30.827Z,511.9
2016-06-06T09:22:40.827Z,506.3
2016-06-06T09:22:50.827Z,506.3
2016-06-06T09:23:00.843Z,500.6
2016-06-06T09:23:10.846Z,500.6
2016-06-06T09:23:20.830Z,500.6
2016-06-06T09:23:30.815Z,495
2016-06-06T09:23:40.815Z,495
2016-06-06T09:23:50.830Z,495
2016-06-06T09:24:00.830Z,495
2016-06-06T09:24:10.833Z,500.6
2016-06-06T09:24:20.818Z,500.6
2016-06-06T09:24:30.833Z,500.6
2016-06-06T09:24:40.661Z,506.3
2016-06-06T09:24:50.818Z,511.9
2016-06-06T09:25:00.802Z,517.5
2016-06-06T09:25:10.820Z,528.8
2016-06-06T09:25:20.820Z,517.5
2016-06-06T09:25:30.804Z,511.9
2016-06-06T09:25:40.820Z,506.3
2016-06-06T09:25:50.820Z,500.6
2016-06-06T09:26:00.663Z,500.6
2016-06-06T09:26:10.807Z,500.6
2016-06-06T09:26:20.807Z,500.6
2016-06-06T09:26:30.807Z,495
2016-06-06T09:26:40.807Z,489.4
2016-06-06T09:26:50.807Z,483.8
2016-06-06T09:27:00.807Z,478.1
2016-06-06T09:27:10.810Z,478.1
2016-06-06T09:27:20.810Z,478.1
2016-06-06T09:27:30.810Z,472.5
2016-06-06T09:27:40.857Z,472.5
2016-06-06T09:27:50.794Z,472.5
2016-06-06T09:28:00.810Z,472.5
2016-06-06T09:28:10.641Z,478.1
2016-06-06T09:28:20.797Z,478.1
2016-06-06T09:28:30.813Z,483.8
2016-06-06T09:28:41.282Z,489.4
2016-06-06T09:28:51.251Z,495
2016-06-06T09:29:02.126Z,489.4
2016-06-06T09:29:11.362Z,489.4
2016-06-06T09:29:21.253Z,483.8
2016-06-06T09:29:32.049Z,483.8
2016-06-06T09:29:42.128Z,483.8
2016-06-06T09:29:50.784Z,483.8
2016-06-06T09:30:01.862Z,483.8
2016-06-06T09:30:10.802Z,483.8
2016-06-06T09:30:20.787Z,489.4
2016-06-06T09:30:30.787Z,500.6
2016-06-06T09:30:40.802Z,500.6
2016-06-06T09:30:50.787Z,500.6
2016-06-06T09:31:00.834Z,506.3
2016-06-06T09:31:10.633Z,506.3
2016-06-06T09:31:20.789Z,511.9
2016-06-06T09:31:30.789Z,511.9
2016-06-06T09:31:40.773Z,511.9
2016-06-06T09:31:50.789Z,511.9
2016-06-06T09:32:00.773Z,511.9
2016-06-06T09:32:10.792Z,511.9
2016-06-06T09:32:20.792Z,511.9
2016-06-06T09:32:30.776Z,511.9
2016-06-06T09:32:40.792Z,511.9
2016-06-06T09:32:50.807Z,517.5
2016-06-06T09:33:00.776Z,540
2016-06-06T09:33:10.779Z,545.6
2016-06-06T09:33:20.764Z,573.8
2016-06-06T09:33:30.764Z,590.6
2016-06-06T09:33:40.779Z,596.3
2016-06-06T09:33:50.779Z,596.3
2016-06-06T09:34:00.795Z,573.8
2016-06-06T09:34:10.767Z,562.5
2016-06-06T09:34:20.782Z,562.5
2016-06-06T09:34:30.798Z,551.3
2016-06-06T09:34:40.767Z,545.6
2016-06-06T09:34:50.829Z,534.4
2016-06-06T09:35:00.767Z,528.8
2016-06-06T09:35:10.785Z,528.8
2016-06-06T09:35:20.770Z,528.8
2016-06-06T09:35:30.801Z,528.8
2016-06-06T09:35:40.770Z,534.4
2016-06-06T09:35:50.770Z,540
2016-06-06T09:36:00.770Z,534.4
2016-06-06T09:36:10.803Z,540
2016-06-06T09:36:20.787Z,545.6
2016-06-06T09:36:30.756Z,540
2016-06-06T09:36:40.787Z,540
2016-06-06T09:36:50.803Z,534.4
2016-06-06T09:37:00.787Z,528.8
2016-06-06T09:37:10.759Z,534.4
2016-06-06T09:37:20.759Z,540
2016-06-06T09:37:30.775Z,540
2016-06-06T09:37:40.759Z,540
2016-06-06T09:37:50.759Z,545.6
2016-06-06T09:38:00.759Z,540
2016-06-06T09:38:10.761Z,545.6
2016-06-06T09:38:20.745Z,545.6
2016-06-06T09:38:30.777Z,556.9
2016-06-06T09:38:40.761Z,545.6
2016-06-06T09:38:50.761Z,545.6
2016-06-06T09:39:00.761Z,556.9
2016-06-06T09:39:10.764Z,568.1
2016-06-06T09:39:20.748Z,590.6
2016-06-06T09:39:30.592Z,618.8
2016-06-06T09:39:40.764Z,613.1
2016-06-06T09:39:50.748Z,669.4
2016-06-06T09:40:00.748Z,708.8
2016-06-06T09:40:10.751Z,720
2016-06-06T09:40:20.767Z,703.1
2016-06-06T09:40:30.767Z,680.6
2016-06-06T09:40:40.751Z,793.1
2016-06-06T09:40:50.767Z,658.1
2016-06-06T09:41:00.736Z,618.8
2016-06-06T09:41:10.770Z,585
2016-06-06T09:41:20.754Z,568.1
2016-06-06T09:41:30.770Z,568.1
2016-06-06T09:41:40.739Z,568.1
2016-06-06T09:41:50.739Z,562.5
2016-06-06T09:42:00.739Z,568.1
2016-06-06T09:42:10.741Z,579.4
2016-06-06T09:42:20.741Z,613.1
2016-06-06T09:42:30.756Z,641.3
2016-06-06T09:42:40.741Z,697.5
2016-06-06T09:42:50.725Z,832.5
2016-06-06T09:43:00.741Z,748.1
2016-06-06T09:43:10.728Z,748.1
2016-06-06T09:43:20.744Z,736.9
2016-06-06T09:43:30.728Z,815.6
2016-06-06T09:43:40.759Z,956.3
2016-06-06T09:43:52.041Z,1080
2016-06-06T09:44:01.556Z,1029.4
2016-06-06T09:44:10.761Z,1029.4
2016-06-06T09:44:20.730Z,1164.4
2016-06-06T09:44:30.761Z,1456.9
2016-06-06T09:44:40.949Z,1147.5
2016-06-06T09:44:50.808Z,1080
2016-06-06T09:45:00.730Z,1012.5
2016-06-06T09:45:10.734Z,1125
2016-06-06T09:45:20.734Z,1130.6
2016-06-06T09:45:30.718Z,1423.1
2016-06-06T09:45:40.734Z,1260
2016-06-06T09:45:50.734Z,1417.5
2016-06-06T09:46:00.734Z,1552.5
2016-06-06T09:46:10.720Z,1524.4
2016-06-06T09:46:20.736Z,1243.1
2016-06-06T09:46:30.720Z,1485
2016-06-06T09:46:40.720Z,1530
2016-06-06T09:46:50.720Z,1479.4
2016-06-06T09:47:00.720Z,1231.9
2016-06-06T09:47:10.723Z,1175.6
2016-06-06T09:47:20.723Z,973.1
2016-06-06T09:47:30.708Z,1023.8
2016-06-06T09:47:40.723Z,961.9
2016-06-06T09:47:50.723Z,787.5
2016-06-06T09:48:00.723Z,1001.3
2016-06-06T09:48:10.710Z,1462.5
2016-06-06T09:48:20.710Z,1338.8
2016-06-06T09:48:30.741Z,1361.3
2016-06-06T09:48:40.725Z,1406.3
2016-06-06T09:48:50.725Z,1321.9
2016-06-06T09:49:00.710Z,1254.4
2016-06-06T09:49:10.713Z,1136.3
2016-06-06T09:49:20.775Z,1006.9
2016-06-06T09:49:30.713Z,1220.6
2016-06-06T09:49:40.713Z,1226.3
2016-06-06T09:49:50.713Z,1237.5
2016-06-06T09:50:00.713Z,1231.9
2016-06-06T09:50:10.715Z,1215
2016-06-06T09:50:20.715Z,1254.4
2016-06-06T09:50:30.715Z,1080
2016-06-06T09:50:40.715Z,748.1
2016-06-06T09:50:50.715Z,765
2016-06-06T09:51:00.699Z,781.9
2016-06-06T09:51:10.718Z,776.3
2016-06-06T09:51:20.702Z,753.8
2016-06-06T09:51:30.702Z,911.3
2016-06-06T09:51:40.718Z,815.6
2016-06-06T09:51:50.702Z,742.5
2016-06-06T09:52:00.702Z,961.9
2016-06-06T09:52:10.705Z,1063.1
2016-06-06T09:52:20.705Z,1091.3
2016-06-06T09:52:30.705Z,1068.8
2016-06-06T09:52:40.721Z,973.1
2016-06-06T09:52:50.705Z,877.5
2016-06-06T09:53:00.705Z,753.8
2016-06-06T09:53:10.724Z,708.8
2016-06-06T09:53:20.708Z,669.4
2016-06-06T09:53:30.708Z,663.8
2016-06-06T09:53:40.911Z,675
2016-06-06T09:53:52.849Z,641.3
2016-06-06T09:54:04.583Z,691.9
2016-06-06T09:54:16.352Z,663.8
2016-06-06T09:54:28.086Z,720
2016-06-06T09:54:39.821Z,866.3
2016-06-06T09:54:51.539Z,849.4
2016-06-06T09:55:03.336Z,961.9
2016-06-06T09:55:15.135Z,1012.5
2016-06-06T09:55:22.963Z,1006.9
2016-06-06T09:55:32.948Z,1001.3
2016-06-06T09:55:42.791Z,990
2016-06-06T09:55:52.948Z,1001.3
2016-06-06T09:56:02.979Z,1001.3
2016-06-06T09:56:13.919Z,995.6
2016-06-06T09:56:25.466Z,978.8
2016-06-06T09:56:37.169Z,995.6
2016-06-06T09:56:48.685Z,995.6
2016-06-06T09:57:00.435Z,1006.9
2016-06-06T09:57:12.235Z,995.6
2016-06-06T09:57:23.922Z,961.9
2016-06-06T09:57:35.141Z,990
2016-06-06T09:57:46.438Z,984.4
2016-06-06T09:57:57.360Z,978.8
2016-06-06T09:58:06.049Z,990
2016-06-06T09:58:16.002Z,984.4
2016-06-06T09:58:26.002Z,984.4
2016-06-06T09:58:35.987Z,973.1
2016-06-06T09:58:46.362Z,961.9
2016-06-06T09:58:56.034Z,973.1
2016-06-06T09:59:05.849Z,967.5
2016-06-06T09:59:15.990Z,967.5
2016-06-06T09:59:26.677Z,967.5
2016-06-06T09:59:36.693Z,984.4
2016-06-06T09:59:46.427Z,973.1
2016-06-06T09:59:56.427Z,933.8
2016-06-06T10:00:06.008Z,990
2016-06-06T10:00:15.977Z,967.5
2016-06-06T10:00:26.008Z,945
2016-06-06T10:00:35.977Z,928.1
2016-06-06T10:00:45.977Z,961.9
2016-06-06T10:00:55.993Z,984.4
2016-06-06T10:01:05.996Z,984.4
2016-06-06T10:01:15.980Z,973.1
2016-06-06T10:01:25.996Z,978.8
2016-06-06T10:01:35.980Z,984.4
2016-06-06T10:01:45.996Z,995.6
2016-06-06T10:01:55.996Z,1001.3
2016-06-06T10:02:05.998Z,1001.3
2016-06-06T10:02:15.982Z,984.4
2016-06-06T10:02:25.998Z,1012.5
2016-06-06T10:02:35.982Z,1006.9
2016-06-06T10:02:45.982Z,995.6
2016-06-06T10:02:55.998Z,1006.9
2016-06-06T10:03:05.985Z,1001.3
2016-06-06T10:03:16.001Z,1023.8
2016-06-06T10:03:26.001Z,1001.3
2016-06-06T10:03:36.063Z,995.6
2016-06-06T10:03:45.985Z,1012.5
2016-06-06T10:03:56.016Z,1035
2016-06-06T10:04:05.987Z,1046.3
2016-06-06T10:04:16.003Z,1046.3
2016-06-06T10:04:26.003Z,1057.5
2016-06-06T10:04:35.987Z,1068.8
2016-06-06T10:04:46.003Z,1091.3
2016-06-06T10:04:56.003Z,1068.8
2016-06-06T10:05:06.006Z,900
2016-06-06T10:05:16.006Z,984.4
2016-06-06T10:05:25.990Z,911.3
2016-06-06T10:05:35.990Z,1096.9
2016-06-06T10:05:45.990Z,1102.5
2016-06-06T10:05:55.990Z,1012.5
2016-06-06T10:06:05.834Z,1141.9
2016-06-06T10:06:15.993Z,1158.8
2016-06-06T10:06:26.024Z,967.5
2016-06-06T10:06:35.993Z,1237.5
2016-06-06T10:06:45.993Z,1310.6
2016-06-06T10:06:55.993Z,1344.4
2016-06-06T10:07:05.993Z,1366.9
2016-06-06T10:07:16.043Z,1400.6
2016-06-06T10:07:25.856Z,1423.1
2016-06-06T10:07:35.996Z,1445.6
2016-06-06T10:07:45.840Z,1490.6
2016-06-06T10:07:55.996Z,1496.3
2016-06-06T10:08:05.996Z,1485
2016-06-06T10:08:15.998Z,1496.3
2016-06-06T10:08:26.014Z,1535.6
2016-06-06T10:08:36.045Z,1558.1
2016-06-06T10:08:46.014Z,1563.8
2016-06-06T10:08:55.998Z,1575
2016-06-06T10:09:06.014Z,1558.1
2016-06-06T10:09:16.001Z,1569.4
2016-06-06T10:09:26.001Z,1591.9
2016-06-06T10:09:36.001Z,1608.8
2016-06-06T10:09:46.001Z,1586.3
2016-06-06T10:09:56.001Z,1591.9
2016-06-06T10:10:06.001Z,1575
2016-06-06T10:10:16.003Z,1591.9
2016-06-06T10:10:26.003Z,1586.3
2016-06-06T10:10:36.003Z,1591.9
2016-06-06T10:10:46.003Z,1597.5
2016-06-06T10:10:56.003Z,1586.3
2016-06-06T10:11:06.019Z,1558.1
2016-06-06T10:11:16.007Z,1563.8
2016-06-06T10:11:26.007Z,1524.4
2016-06-06T10:11:36.007Z,1552.5
2016-06-06T10:11:46.007Z,1541.3
2016-06-06T10:11:55.992Z,1535.6
2016-06-06T10:12:06.023Z,1524.4
2016-06-06T10:12:16.009Z,1485
2016-06-06T10:12:26.009Z,1490.6
2016-06-06T10:12:36.009Z,1501.9
2016-06-06T10:12:45.994Z,1468.1
2016-06-06T10:12:56.009Z,1490.6
2016-06-06T10:13:06.009Z,1501.9
2016-06-06T10:13:16.011Z,1518.8
2016-06-06T10:13:26.011Z,1535.6
2016-06-06T10:13:36.011Z,1541.3
2016-06-06T10:13:46.011Z,1546.9
2016-06-06T10:13:56.011Z,1541.3
2016-06-06T10:14:05.871Z,1524.4
2016-06-06T10:14:16.046Z,1530
2016-06-06T10:14:26.031Z,1524.4
2016-06-06T10:14:36.031Z,1496.3
2016-06-06T10:14:45.875Z,1462.5
2016-06-06T10:14:56.015Z,1456.9
2016-06-06T10:15:06.705Z,1468.1
2016-06-06T10:15:16.017Z,1468.1
2016-06-06T10:15:26.002Z,1456.9
2016-06-06T10:15:36.002Z,1473.8
2016-06-06T10:15:46.017Z,1496.3
2016-06-06T10:15:56.002Z,1445.6
2016-06-06T10:16:06.002Z,1440
2016-06-06T10:16:16.020Z,1417.5
2016-06-06T10:16:26.005Z,1389.4
2016-06-06T10:16:36.005Z,1338.8
2016-06-06T10:16:46.020Z,1310.6
2016-06-06T10:16:55.864Z,1265.6
2016-06-06T10:17:06.005Z,1237.5
2016-06-06T10:17:16.038Z,1203.8
2016-06-06T10:17:26.007Z,1136.3
2016-06-06T10:17:36.022Z,1085.6
2016-06-06T10:17:46.022Z,1046.3
2016-06-06T10:17:56.007Z,1001.3
2016-06-06T10:18:06.022Z,961.9
2016-06-06T10:18:16.025Z,922.5
2016-06-06T10:18:26.010Z,900
2016-06-06T10:18:36.025Z,900
2016-06-06T10:18:46.010Z,883.1
2016-06-06T10:18:56.025Z,871.9
2016-06-06T10:19:06.010Z,866.3
2016-06-06T10:19:16.013Z,866.3
2016-06-06T10:19:26.013Z,860.6
2016-06-06T10:19:36.028Z,860.6
2016-06-06T10:19:46.013Z,855
2016-06-06T10:19:56.028Z,843.8
2016-06-06T10:20:06.013Z,843.8
2016-06-06T10:20:16.031Z,838.1
2016-06-06T10:20:26.016Z,843.8
2016-06-06T10:20:36.031Z,843.8
2016-06-06T10:20:46.031Z,838.1
2016-06-06T10:20:56.016Z,838.1
2016-06-06T10:21:06.031Z,826.9
2016-06-06T10:21:16.033Z,821.3
2016-06-06T10:21:26.033Z,826.9
2016-06-06T10:21:36.033Z,832.5
2016-06-06T10:21:46.018Z,838.1
2016-06-06T10:21:56.049Z,832.5
2016-06-06T10:22:06.033Z,832.5
2016-06-06T10:22:16.036Z,832.5
2016-06-06T10:22:26.036Z,821.3
2016-06-06T10:22:36.021Z,815.6
2016-06-06T10:22:46.036Z,821.3
2016-06-06T10:22:56.036Z,838.1
2016-06-06T10:23:06.036Z,826.9
2016-06-06T10:23:16.039Z,826.9
2016-06-06T10:23:26.024Z,815.6
2016-06-06T10:23:36.039Z,821.3
2016-06-06T10:23:46.024Z,826.9
2016-06-06T10:23:56.024Z,838.1
2016-06-06T10:24:06.055Z,821.3
2016-06-06T10:24:16.041Z,815.6
2016-06-06T10:24:26.041Z,826.9
2016-06-06T10:24:36.041Z,838.1
2016-06-06T10:24:46.041Z,838.1
2016-06-06T10:24:56.041Z,832.5
2016-06-06T10:25:05.885Z,832.5
2016-06-06T10:25:16.029Z,826.9
2016-06-06T10:25:26.044Z,826.9
2016-06-06T10:25:36.029Z,838.1
2016-06-06T10:25:46.044Z,826.9
2016-06-06T10:25:56.044Z,826.9
2016-06-06T10:26:06.044Z,826.9
2016-06-06T10:26:16.047Z,832.5
2016-06-06T10:26:26.047Z,832.5
2016-06-06T10:26:36.047Z,838.1
2016-06-06T10:26:46.047Z,826.9
2016-06-06T10:26:56.047Z,832.5
2016-06-06T10:27:06.047Z,826.9
2016-06-06T10:27:16.330Z,832.5
2016-06-06T10:27:28.127Z,843.8
2016-06-06T10:27:39.815Z,838.1
2016-06-06T10:27:51.440Z,832.5
2016-06-06T10:28:03.174Z,832.5
2016-06-06T10:28:14.879Z,826.9
2016-06-06T10:28:26.582Z,826.9
2016-06-06T10:28:36.239Z,838.1
2016-06-06T10:28:46.629Z,832.5
2016-06-06T10:28:56.848Z,832.5
2016-06-06T10:29:06.520Z,832.5
2016-06-06T10:29:16.008Z,826.9
2016-06-06T10:29:26.680Z,826.9
2016-06-06T10:29:36.165Z,832.5
2016-06-06T10:29:46.633Z,838.1
2016-06-06T10:29:56.571Z,832.5
2016-06-06T10:30:07.479Z,832.5
2016-06-06T10:30:16.182Z,832.5
2016-06-06T10:30:26.120Z,832.5
2016-06-06T10:30:36.182Z,838.1
2016-06-06T10:30:46.182Z,826.9
2016-06-06T10:30:56.167Z,832.5
2016-06-06T10:31:06.167Z,838.1
2016-06-06T10:31:16.185Z,843.8
2016-06-06T10:31:26.170Z,832.5
2016-06-06T10:31:36.170Z,826.9
2016-06-06T10:31:46.170Z,832.5
2016-06-06T10:31:56.170Z,838.1
2016-06-06T10:32:06.154Z,843.8
2016-06-06T10:32:16.172Z,849.4
2016-06-06T10:32:26.156Z,849.4
2016-06-06T10:32:36.172Z,843.8
2016-06-06T10:32:46.172Z,849.4
2016-06-06T10:32:56.172Z,860.6
2016-06-06T10:33:06.172Z,860.6
2016-06-06T10:33:16.175Z,860.6
2016-06-06T10:33:26.159Z,866.3
2016-06-06T10:33:36.175Z,871.9
2016-06-06T10:33:46.175Z,894.4
2016-06-06T10:33:56.175Z,894.4
2016-06-06T10:34:05.862Z,888.8
2016-06-06T10:34:16.178Z,900
2016-06-06T10:34:26.178Z,922.5
2016-06-06T10:34:36.178Z,916.9
2016-06-06T10:34:46.178Z,922.5
2016-06-06T10:34:56.178Z,928.1
2016-06-06T10:35:06.162Z,945
2016-06-06T10:35:16.181Z,950.6
2016-06-06T10:35:26.181Z,961.9
2016-06-06T10:35:36.181Z,967.5
2016-06-06T10:35:46.181Z,967.5
2016-06-06T10:35:56.181Z,967.5
2016-06-06T10:36:06.181Z,973.1
2016-06-06T10:36:16.183Z,978.8
2016-06-06T10:36:26.183Z,1001.3
2016-06-06T10:36:36.183Z,1018.1
2016-06-06T10:36:46.183Z,1035
2016-06-06T10:36:56.183Z,1046.3
2016-06-06T10:37:06.183Z,1068.8
2016-06-06T10:37:16.186Z,1091.3
2016-06-06T10:37:26.186Z,1102.5
2016-06-06T10:37:36.186Z,1141.9
2016-06-06T10:37:46.186Z,1175.6
2016-06-06T10:37:56.186Z,1209.4
2016-06-06T10:38:06.186Z,1254.4
2016-06-06T10:38:16.188Z,1288.1
2016-06-06T10:38:26.188Z,1327.5
2016-06-06T10:38:36.031Z,1366.9
2016-06-06T10:38:46.188Z,1400.6
2016-06-06T10:38:56.188Z,1428.8
2016-06-06T10:39:06.188Z,1451.3
2016-06-06T10:39:16.192Z,1490.6
2016-06-06T10:39:26.192Z,1524.4
2016-06-06T10:39:36.192Z,1558.1
2016-06-06T10:39:46.192Z,1586.3
2016-06-06T10:39:56.192Z,1586.3
2016-06-06T10:40:06.192Z,1575
2016-06-06T10:40:16.194Z,1608.8
2016-06-06T10:40:26.194Z,1614.4
2016-06-06T10:40:36.194Z,1625.6
2016-06-06T10:40:46.194Z,1642.5
2016-06-06T10:40:56.209Z,1659.4
2016-06-06T10:41:06.037Z,1620
2016-06-06T10:41:16.197Z,1614.4
2016-06-06T10:41:26.197Z,1625.6
2016-06-06T10:41:36.197Z,1642.5
2016-06-06T10:41:46.197Z,1665
2016-06-06T10:41:56.197Z,1659.4
2016-06-06T10:42:06.197Z,1642.5
2016-06-06T10:42:16.199Z,1642.5
2016-06-06T10:42:26.199Z,1614.4
2016-06-06T10:42:36.214Z,1608.8
2016-06-06T10:42:46.199Z,1597.5
2016-06-06T10:42:56.199Z,1586.3
2016-06-06T10:43:06.199Z,1575
2016-06-06T10:43:16.202Z,1575
2016-06-06T10:43:26.202Z,1563.8
2016-06-06T10:43:36.217Z,1569.4
2016-06-06T10:43:46.248Z,1563.8
2016-06-06T10:43:56.217Z,1597.5
2016-06-06T10:44:06.217Z,1620
2016-06-06T10:44:15.923Z,1620
2016-06-06T10:44:26.142Z,1625.6
2016-06-06T10:44:37.611Z,1608.8
2016-06-06T10:44:46.236Z,1620
2016-06-06T10:44:56.673Z,1636.9
2016-06-06T10:45:06.220Z,1665
2016-06-06T10:45:16.223Z,1665
2016-06-06T10:45:26.223Z,1670.6
2016-06-06T10:45:36.208Z,1665
2016-06-06T10:45:46.208Z,1653.8
2016-06-06T10:45:56.208Z,1631.3
2016-06-06T10:46:06.208Z,1597.5
2016-06-06T10:46:16.225Z,1597.5
2016-06-06T10:46:26.069Z,1586.3
2016-06-06T10:46:36.210Z,1586.3
2016-06-06T10:46:46.210Z,1575
2016-06-06T10:46:56.210Z,1552.5
2016-06-06T10:47:06.225Z,1541.3
2016-06-06T10:47:16.228Z,1524.4
2016-06-06T10:47:26.228Z,1535.6
2016-06-06T10:47:36.228Z,1535.6
2016-06-06T10:47:46.213Z,1530
2016-06-06T10:47:56.213Z,1552.5
2016-06-06T10:48:06.228Z,1558.1
2016-06-06T10:48:16.231Z,1580.6
2016-06-06T10:48:26.231Z,1597.5
2016-06-06T10:48:36.216Z,1608.8
2016-06-06T10:48:46.231Z,1636.9
2016-06-06T10:48:56.247Z,1648.1
2016-06-06T10:49:06.231Z,1665
2016-06-06T10:49:16.233Z,1676.3
2016-06-06T10:49:26.233Z,1681.9